Terminal Aerodrome Forecast
Issued by NWS Louisville, KY

Home | Current Version | Previous Version | Text Only | Print | Product List | Glossary On
Versions: 1 2 3 4 5 6 7 8 9 10 11 12 13 14 15
000
FTUS43 KLMK 171700
TAFBWG
TAF
KBWG 171731Z 1718/1818 24010G15KT P6SM FEW040
     FM172300 29005KT P6SM SCT040
     FM181500 32008KT P6SM BKN035=

USA.gov is the U.S. government's official web portal to all federal, state and local government web resources and services.